sensor_id;sensor_type;location;lat;lon;timestamp;P1;durP1;ratioP1;P2;durP2;ratioP2
673;SDS011;319;48.764;9.174;2022-12-18T00:00:43;1.70;;;1.70;;
673;SDS011;319;48.764;9.174;2022-12-18T00:03:11;1.90;;;1.90;;
673;SDS011;319;48.764;9.174;2022-12-18T00:05:45;1.80;;;1.80;;
673;SDS011;319;48.764;9.174;2022-12-18T00:08:12;1.90;;;1.90;;
673;SDS011;319;48.764;9.174;2022-12-18T00:10:39;1.90;;;1.90;;
673;SDS011;319;48.764;9.174;2022-12-18T00:13:06;1.90;;;1.90;;
673;SDS011;319;48.764;9.174;2022-12-18T00:15:34;1.95;;;1.95;;
673;SDS011;319;48.764;9.174;2022-12-18T00:18:01;1.67;;;1.67;;
673;SDS011;319;48.764;9.174;2022-12-18T00:20:28;2.00;;;2.00;;
673;SDS011;319;48.764;9.174;2022-12-18T00:22:55;1.70;;;1.70;;
673;SDS011;319;48.764;9.174;2022-12-18T00:25:22;1.80;;;1.80;;
673;SDS011;319;48.764;9.174;2022-12-18T00:27:49;2.10;;;2.10;;
673;SDS011;319;48.764;9.174;2022-12-18T00:30:16;1.90;;;1.90;;
673;SDS011;319;48.764;9.174;2022-12-18T00:32:44;1.70;;;1.70;;
673;SDS011;319;48.764;9.174;2022-12-18T00:35:10;1.73;;;1.73;;
673;SDS011;319;48.764;9.174;2022-12-18T00:37:37;1.80;;;1.80;;
673;SDS011;319;48.764;9.174;2022-12-18T00:40:04;1.80;;;1.80;;
673;SDS011;319;48.764;9.174;2022-12-18T00:42:32;1.80;;;1.80;;
673;SDS011;319;48.764;9.174;2022-12-18T00:45:16;1.70;;;1.70;;
673;SDS011;319;48.764;9.174;2022-12-18T00:47:44;1.80;;;1.80;;
673;SDS011;319;48.764;9.174;2022-12-18T00:50:11;1.90;;;1.90;;
673;SDS011;319;48.764;9.174;2022-12-18T00:52:38;1.80;;;1.80;;
673;SDS011;319;48.764;9.174;2022-12-18T00:55:05;1.67;;;1.67;;
673;SDS011;319;48.764;9.174;2022-12-18T00:57:33;1.70;;;1.70;;
673;SDS011;319;48.764;9.174;2022-12-18T01:00:00;1.80;;;1.80;;
673;SDS011;319;48.764;9.174;2022-12-18T01:02:27;1.80;;;1.80;;
673;SDS011;319;48.764;9.174;2022-12-18T01:04:55;1.88;;;1.88;;
673;SDS011;319;48.764;9.174;2022-12-18T01:07:22;1.90;;;1.90;;
673;SDS011;319;48.764;9.174;2022-12-18T01:09:48;1.80;;;1.80;;
673;SDS011;319;48.764;9.174;2022-12-18T01:12:15;1.80;;;1.80;;
673;SDS011;319;48.764;9.174;2022-12-18T01:14:42;2.00;;;2.00;;
673;SDS011;319;48.764;9.174;2022-12-18T01:17:09;1.80;;;1.80;;
673;SDS011;319;48.764;9.174;2022-12-18T01:19:36;1.70;;;1.70;;
673;SDS011;319;48.764;9.174;2022-12-18T01:22:04;1.98;;;1.98;;
673;SDS011;319;48.764;9.174;2022-12-18T01:24:31;1.80;;;1.80;;
673;SDS011;319;48.764;9.174;2022-12-18T01:26:57;1.60;;;1.60;;
673;SDS011;319;48.764;9.174;2022-12-18T01:29:24;1.90;;;1.90;;
673;SDS011;319;48.764;9.174;2022-12-18T01:31:54;1.80;;;1.80;;
673;SDS011;319;48.764;9.174;2022-12-18T01:34:21;1.80;;;1.80;;
673;SDS011;319;48.764;9.174;2022-12-18T01:36:47;2.00;;;2.00;;
673;SDS011;319;48.764;9.174;2022-12-18T01:39:18;1.77;;;1.77;;
673;SDS011;319;48.764;9.174;2022-12-18T01:41:45;1.80;;;1.80;;
673;SDS011;319;48.764;9.174;2022-12-18T01:47:33;1.52;;;1.52;;
673;SDS011;319;48.764;9.174;2022-12-18T01:50:04;1.90;;;1.90;;
673;SDS011;319;48.764;9.174;2022-12-18T01:52:34;1.80;;;1.80;;
673;SDS011;319;48.764;9.174;2022-12-18T01:55:03;1.90;;;1.90;;
673;SDS011;319;48.764;9.174;2022-12-18T01:57:32;2.03;;;2.03;;
673;SDS011;319;48.764;9.174;2022-12-18T02:00:00;1.80;;;1.80;;
673;SDS011;319;48.764;9.174;2022-12-18T02:02:30;1.90;;;1.90;;
673;SDS011;319;48.764;9.174;2022-12-18T02:04:57;1.80;;;1.80;;
673;SDS011;319;48.764;9.174;2022-12-18T02:07:25;1.80;;;1.80;;
673;SDS011;319;48.764;9.174;2022-12-18T02:10:00;1.90;;;1.90;;
673;SDS011;319;48.764;9.174;2022-12-18T02:12:34;1.63;;;1.63;;
673;SDS011;319;48.764;9.174;2022-12-18T02:15:10;1.38;;;1.38;;
673;SDS011;319;48.764;9.174;2022-12-18T02:17:43;3.78;;;3.67;;
673;SDS011;319;48.764;9.174;2022-12-18T02:20:15;1.90;;;1.90;;
673;SDS011;319;48.764;9.174;2022-12-18T02:22:49;1.70;;;1.70;;
673;SDS011;319;48.764;9.174;2022-12-18T02:25:37;1.90;;;1.90;;
673;SDS011;319;48.764;9.174;2022-12-18T02:28:12;1.70;;;1.70;;
673;SDS011;319;48.764;9.174;2022-12-18T02:30:41;1.80;;;1.80;;
673;SDS011;319;48.764;9.174;2022-12-18T02:33:10;1.90;;;1.90;;
673;SDS011;319;48.764;9.174;2022-12-18T02:35:38;1.70;;;1.70;;
673;SDS011;319;48.764;9.174;2022-12-18T02:38:07;1.80;;;1.80;;
673;SDS011;319;48.764;9.174;2022-12-18T02:40:33;1.70;;;1.70;;
673;SDS011;319;48.764;9.174;2022-12-18T02:43:02;1.60;;;1.60;;
673;SDS011;319;48.764;9.174;2022-12-18T02:45:34;1.80;;;1.80;;
673;SDS011;319;48.764;9.174;2022-12-18T02:48:01;1.80;;;1.80;;
673;SDS011;319;48.764;9.174;2022-12-18T02:50:30;1.70;;;1.70;;
673;SDS011;319;48.764;9.174;2022-12-18T02:53:06;1.70;;;1.70;;
673;SDS011;319;48.764;9.174;2022-12-18T02:55:45;1.90;;;1.90;;
673;SDS011;319;48.764;9.174;2022-12-18T02:58:26;1.73;;;1.73;;
673;SDS011;319;48.764;9.174;2022-12-18T03:01:01;1.70;;;1.70;;
673;SDS011;319;48.764;9.174;2022-12-18T03:03:36;1.70;;;1.70;;
673;SDS011;319;48.764;9.174;2022-12-18T03:06:07;1.70;;;1.70;;
673;SDS011;319;48.764;9.174;2022-12-18T03:08:41;1.80;;;1.80;;
673;SDS011;319;48.764;9.174;2022-12-18T03:11:11;1.90;;;1.90;;
673;SDS011;319;48.764;9.174;2022-12-18T03:13:41;1.90;;;1.90;;
673;SDS011;319;48.764;9.174;2022-12-18T03:16:14;1.80;;;1.80;;
673;SDS011;319;48.764;9.174;2022-12-18T03:18:45;4.57;;;4.38;;
673;SDS011;319;48.764;9.174;2022-12-18T03:21:15;1.80;;;1.80;;
673;SDS011;319;48.764;9.174;2022-12-18T03:23:48;1.60;;;1.60;;
673;SDS011;319;48.764;9.174;2022-12-18T03:26:17;1.50;;;1.50;;
673;SDS011;319;48.764;9.174;2022-12-18T03:28:48;1.70;;;1.70;;
673;SDS011;319;48.764;9.174;2022-12-18T03:31:20;1.70;;;1.70;;
673;SDS011;319;48.764;9.174;2022-12-18T03:33:51;1.90;;;1.90;;
673;SDS011;319;48.764;9.174;2022-12-18T03:36:19;1.70;;;1.70;;
673;SDS011;319;48.764;9.174;2022-12-18T03:38:46;1.90;;;1.90;;
673;SDS011;319;48.764;9.174;2022-12-18T03:41:15;1.90;;;1.90;;
673;SDS011;319;48.764;9.174;2022-12-18T03:43:47;1.83;;;1.83;;
673;SDS011;319;48.764;9.174;2022-12-18T03:46:23;1.80;;;1.80;;
673;SDS011;319;48.764;9.174;2022-12-18T03:48:54;1.90;;;1.90;;
673;SDS011;319;48.764;9.174;2022-12-18T03:51:26;1.90;;;1.90;;
673;SDS011;319;48.764;9.174;2022-12-18T03:54:02;1.90;;;1.90;;
673;SDS011;319;48.764;9.174;2022-12-18T03:56:33;1.70;;;1.70;;
673;SDS011;319;48.764;9.174;2022-12-18T03:59:04;1.90;;;1.90;;
673;SDS011;319;48.764;9.174;2022-12-18T04:01:34;1.60;;;1.60;;
673;SDS011;319;48.764;9.174;2022-12-18T04:04:04;2.00;;;2.00;;
673;SDS011;319;48.764;9.174;2022-12-18T04:06:32;1.90;;;1.90;;
673;SDS011;319;48.764;9.174;2022-12-18T04:09:00;1.80;;;1.80;;
673;SDS011;319;48.764;9.174;2022-12-18T04:11:27;1.55;;;1.55;;
673;SDS011;319;48.764;9.174;2022-12-18T04:13:55;1.67;;;1.67;;
673;SDS011;319;48.764;9.174;2022-12-18T04:16:22;2.00;;;2.00;;
673;SDS011;319;48.764;9.174;2022-12-18T04:18:51;1.80;;;1.80;;
673;SDS011;319;48.764;9.174;2022-12-18T04:21:18;1.90;;;1.90;;
673;SDS011;319;48.764;9.174;2022-12-18T04:23:45;1.83;;;1.83;;
673;SDS011;319;48.764;9.174;2022-12-18T04:26:12;1.70;;;1.70;;
673;SDS011;319;48.764;9.174;2022-12-18T04:28:39;1.90;;;1.90;;
673;SDS011;319;48.764;9.174;2022-12-18T04:31:06;1.80;;;1.80;;
673;SDS011;319;48.764;9.174;2022-12-18T04:33:32;1.95;;;1.95;;
673;SDS011;319;48.764;9.174;2022-12-18T04:36:01;1.80;;;1.80;;
673;SDS011;319;48.764;9.174;2022-12-18T04:38:28;1.80;;;1.80;;
673;SDS011;319;48.764;9.174;2022-12-18T04:40:55;1.60;;;1.60;;
673;SDS011;319;48.764;9.174;2022-12-18T04:43:21;2.00;;;2.00;;
673;SDS011;319;48.764;9.174;2022-12-18T04:45:48;1.92;;;1.92;;
673;SDS011;319;48.764;9.174;2022-12-18T04:48:15;1.90;;;1.90;;
673;SDS011;319;48.764;9.174;2022-12-18T04:50:42;2.00;;;2.00;;
673;SDS011;319;48.764;9.174;2022-12-18T04:53:10;2.00;;;2.00;;
673;SDS011;319;48.764;9.174;2022-12-18T04:55:36;2.00;;;2.00;;
673;SDS011;319;48.764;9.174;2022-12-18T04:58:03;1.80;;;1.80;;
673;SDS011;319;48.764;9.174;2022-12-18T05:00:30;1.65;;;1.65;;
673;SDS011;319;48.764;9.174;2022-12-18T05:02:57;1.95;;;1.95;;
673;SDS011;319;48.764;9.174;2022-12-18T05:05:23;1.80;;;1.80;;
673;SDS011;319;48.764;9.174;2022-12-18T05:07:50;1.90;;;1.90;;
673;SDS011;319;48.764;9.174;2022-12-18T05:10:18;1.60;;;1.60;;
673;SDS011;319;48.764;9.174;2022-12-18T05:12:45;1.88;;;1.88;;
673;SDS011;319;48.764;9.174;2022-12-18T05:15:26;1.80;;;1.80;;
673;SDS011;319;48.764;9.174;2022-12-18T05:17:54;1.90;;;1.90;;
673;SDS011;319;48.764;9.174;2022-12-18T05:20:21;2.10;;;2.10;;
673;SDS011;319;48.764;9.174;2022-12-18T05:22:48;1.75;;;1.75;;
673;SDS011;319;48.764;9.174;2022-12-18T05:25:15;1.90;;;1.90;;
673;SDS011;319;48.764;9.174;2022-12-18T05:27:43;1.60;;;1.60;;
673;SDS011;319;48.764;9.174;2022-12-18T05:30:11;1.90;;;1.90;;
673;SDS011;319;48.764;9.174;2022-12-18T05:32:38;1.90;;;1.90;;
673;SDS011;319;48.764;9.174;2022-12-18T05:35:06;1.70;;;1.70;;
673;SDS011;319;48.764;9.174;2022-12-18T05:37:34;2.00;;;2.00;;
673;SDS011;319;48.764;9.174;2022-12-18T05:40:01;1.90;;;1.90;;
673;SDS011;319;48.764;9.174;2022-12-18T05:42:29;1.70;;;1.70;;
673;SDS011;319;48.764;9.174;2022-12-18T05:44:58;1.90;;;1.90;;
673;SDS011;319;48.764;9.174;2022-12-18T05:47:26;2.00;;;2.00;;
673;SDS011;319;48.764;9.174;2022-12-18T05:49:53;1.70;;;1.70;;
673;SDS011;319;48.764;9.174;2022-12-18T05:52:19;1.90;;;1.90;;
673;SDS011;319;48.764;9.174;2022-12-18T05:54:46;1.98;;;1.98;;
673;SDS011;319;48.764;9.174;2022-12-18T05:57:13;1.90;;;1.90;;
673;SDS011;319;48.764;9.174;2022-12-18T05:59:40;1.80;;;1.80;;
673;SDS011;319;48.764;9.174;2022-12-18T06:02:08;1.88;;;1.88;;
673;SDS011;319;48.764;9.174;2022-12-18T06:04:35;1.63;;;1.63;;
673;SDS011;319;48.764;9.174;2022-12-18T06:07:01;2.00;;;2.00;;
673;SDS011;319;48.764;9.174;2022-12-18T06:09:28;2.00;;;2.00;;
673;SDS011;319;48.764;9.174;2022-12-18T06:11:55;2.00;;;2.00;;
673;SDS011;319;48.764;9.174;2022-12-18T06:14:22;1.90;;;1.90;;
673;SDS011;319;48.764;9.174;2022-12-18T06:16:50;1.90;;;1.90;;
673;SDS011;319;48.764;9.174;2022-12-18T06:19:18;1.90;;;1.90;;
673;SDS011;319;48.764;9.174;2022-12-18T06:21:45;1.88;;;1.88;;
673;SDS011;319;48.764;9.174;2022-12-18T06:24:12;1.60;;;1.60;;
673;SDS011;319;48.764;9.174;2022-12-18T06:26:39;1.63;;;1.63;;
673;SDS011;319;48.764;9.174;2022-12-18T06:29:06;1.90;;;1.90;;
673;SDS011;319;48.764;9.174;2022-12-18T06:31:33;1.90;;;1.90;;
673;SDS011;319;48.764;9.174;2022-12-18T06:34:01;1.80;;;1.80;;
673;SDS011;319;48.764;9.174;2022-12-18T06:36:30;1.80;;;1.80;;
673;SDS011;319;48.764;9.174;2022-12-18T06:38:57;2.00;;;2.00;;
673;SDS011;319;48.764;9.174;2022-12-18T06:41:24;1.65;;;1.65;;
673;SDS011;319;48.764;9.174;2022-12-18T06:43:51;2.00;;;2.00;;
673;SDS011;319;48.764;9.174;2022-12-18T06:46:18;1.90;;;1.90;;
673;SDS011;319;48.764;9.174;2022-12-18T06:48:46;2.10;;;2.10;;
673;SDS011;319;48.764;9.174;2022-12-18T06:51:15;1.80;;;1.80;;
673;SDS011;319;48.764;9.174;2022-12-18T06:53:44;2.00;;;2.00;;
673;SDS011;319;48.764;9.174;2022-12-18T06:56:12;1.60;;;1.60;;
673;SDS011;319;48.764;9.174;2022-12-18T06:58:39;1.85;;;1.85;;
673;SDS011;319;48.764;9.174;2022-12-18T07:01:06;1.90;;;1.90;;
673;SDS011;319;48.764;9.174;2022-12-18T07:03:35;1.80;;;1.80;;
673;SDS011;319;48.764;9.174;2022-12-18T07:06:02;1.90;;;1.90;;
673;SDS011;319;48.764;9.174;2022-12-18T07:08:29;1.90;;;1.90;;
673;SDS011;319;48.764;9.174;2022-12-18T07:10:58;1.90;;;1.90;;
673;SDS011;319;48.764;9.174;2022-12-18T07:13:24;1.95;;;1.95;;
673;SDS011;319;48.764;9.174;2022-12-18T07:15:51;1.70;;;1.70;;
673;SDS011;319;48.764;9.174;2022-12-18T07:18:18;1.90;;;1.90;;
673;SDS011;319;48.764;9.174;2022-12-18T07:20:45;1.90;;;1.90;;
673;SDS011;319;48.764;9.174;2022-12-18T07:23:12;2.00;;;2.00;;
673;SDS011;319;48.764;9.174;2022-12-18T07:25:39;1.77;;;1.77;;
673;SDS011;319;48.764;9.174;2022-12-18T07:28:07;2.00;;;2.00;;
673;SDS011;319;48.764;9.174;2022-12-18T07:30:36;1.70;;;1.70;;
673;SDS011;319;48.764;9.174;2022-12-18T07:33:03;2.00;;;2.00;;
673;SDS011;319;48.764;9.174;2022-12-18T07:35:30;2.00;;;2.00;;
673;SDS011;319;48.764;9.174;2022-12-18T07:37:57;1.85;;;1.85;;
673;SDS011;319;48.764;9.174;2022-12-18T07:40:24;1.98;;;1.98;;
673;SDS011;319;48.764;9.174;2022-12-18T07:42:50;1.90;;;1.90;;
673;SDS011;319;48.764;9.174;2022-12-18T07:45:18;1.90;;;1.90;;
673;SDS011;319;48.764;9.174;2022-12-18T07:47:45;1.70;;;1.70;;
673;SDS011;319;48.764;9.174;2022-12-18T07:50:12;1.90;;;1.90;;
673;SDS011;319;48.764;9.174;2022-12-18T07:52:39;1.90;;;1.90;;
673;SDS011;319;48.764;9.174;2022-12-18T07:55:06;1.80;;;1.80;;
673;SDS011;319;48.764;9.174;2022-12-18T07:57:33;1.80;;;1.80;;
673;SDS011;319;48.764;9.174;2022-12-18T08:00:00;1.90;;;1.90;;
673;SDS011;319;48.764;9.174;2022-12-18T08:02:28;1.80;;;1.80;;
673;SDS011;319;48.764;9.174;2022-12-18T08:04:56;1.80;;;1.80;;
673;SDS011;319;48.764;9.174;2022-12-18T08:07:24;1.70;;;1.70;;
673;SDS011;319;48.764;9.174;2022-12-18T08:09:50;1.80;;;1.80;;
673;SDS011;319;48.764;9.174;2022-12-18T08:12:17;1.80;;;1.80;;
673;SDS011;319;48.764;9.174;2022-12-18T08:14:44;1.80;;;1.80;;
673;SDS011;319;48.764;9.174;2022-12-18T08:17:11;1.70;;;1.70;;
673;SDS011;319;48.764;9.174;2022-12-18T08:19:39;2.03;;;2.03;;
673;SDS011;319;48.764;9.174;2022-12-18T08:22:06;1.80;;;1.80;;
673;SDS011;319;48.764;9.174;2022-12-18T08:24:32;1.80;;;1.80;;
673;SDS011;319;48.764;9.174;2022-12-18T08:26:59;1.83;;;1.83;;
673;SDS011;319;48.764;9.174;2022-12-18T08:29:26;1.80;;;1.80;;
673;SDS011;319;48.764;9.174;2022-12-18T08:31:53;1.80;;;1.80;;
673;SDS011;319;48.764;9.174;2022-12-18T08:34:19;1.90;;;1.90;;
673;SDS011;319;48.764;9.174;2022-12-18T08:36:48;1.80;;;1.80;;
673;SDS011;319;48.764;9.174;2022-12-18T08:39:14;1.80;;;1.80;;
673;SDS011;319;48.764;9.174;2022-12-18T08:41:41;1.75;;;1.75;;
673;SDS011;319;48.764;9.174;2022-12-18T08:44:28;1.80;;;1.80;;
673;SDS011;319;48.764;9.174;2022-12-18T08:47:02;1.80;;;1.80;;
673;SDS011;319;48.764;9.174;2022-12-18T08:49:29;1.90;;;1.90;;
673;SDS011;319;48.764;9.174;2022-12-18T08:51:57;1.60;;;1.60;;
673;SDS011;319;48.764;9.174;2022-12-18T08:54:24;1.70;;;1.70;;
673;SDS011;319;48.764;9.174;2022-12-18T08:56:51;1.60;;;1.60;;
673;SDS011;319;48.764;9.174;2022-12-18T08:59:18;1.60;;;1.60;;
673;SDS011;319;48.764;9.174;2022-12-18T09:01:46;1.90;;;1.90;;
673;SDS011;319;48.764;9.174;2022-12-18T09:04:13;1.73;;;1.73;;
673;SDS011;319;48.764;9.174;2022-12-18T09:06:40;1.75;;;1.75;;
673;SDS011;319;48.764;9.174;2022-12-18T09:09:10;1.90;;;1.90;;
673;SDS011;319;48.764;9.174;2022-12-18T09:11:38;1.70;;;1.70;;
673;SDS011;319;48.764;9.174;2022-12-18T09:14:05;1.73;;;1.73;;
673;SDS011;319;48.764;9.174;2022-12-18T09:16:32;1.80;;;1.80;;
673;SDS011;319;48.764;9.174;2022-12-18T09:19:00;1.73;;;1.73;;
673;SDS011;319;48.764;9.174;2022-12-18T09:21:28;1.67;;;1.67;;
673;SDS011;319;48.764;9.174;2022-12-18T09:23:56;1.50;;;1.50;;
673;SDS011;319;48.764;9.174;2022-12-18T09:26:25;1.63;;;1.63;;
673;SDS011;319;48.764;9.174;2022-12-18T09:28:52;1.67;;;1.67;;
673;SDS011;319;48.764;9.174;2022-12-18T09:31:21;1.70;;;1.70;;
673;SDS011;319;48.764;9.174;2022-12-18T09:33:49;1.60;;;1.60;;
673;SDS011;319;48.764;9.174;2022-12-18T09:36:17;1.63;;;1.63;;
673;SDS011;319;48.764;9.174;2022-12-18T09:38:44;1.50;;;1.50;;
673;SDS011;319;48.764;9.174;2022-12-18T09:41:17;1.60;;;1.60;;
673;SDS011;319;48.764;9.174;2022-12-18T09:43:57;1.60;;;1.60;;
673;SDS011;319;48.764;9.174;2022-12-18T09:46:27;1.73;;;1.73;;
673;SDS011;319;48.764;9.174;2022-12-18T09:48:59;1.70;;;1.70;;
673;SDS011;319;48.764;9.174;2022-12-18T09:51:32;1.70;;;1.70;;
673;SDS011;319;48.764;9.174;2022-12-18T09:54:03;1.63;;;1.63;;
673;SDS011;319;48.764;9.174;2022-12-18T09:56:36;1.70;;;1.70;;
673;SDS011;319;48.764;9.174;2022-12-18T09:59:13;1.70;;;1.70;;
673;SDS011;319;48.764;9.174;2022-12-18T10:01:46;1.70;;;1.70;;
673;SDS011;319;48.764;9.174;2022-12-18T10:04:13;1.60;;;1.60;;
673;SDS011;319;48.764;9.174;2022-12-18T10:06:42;1.60;;;1.60;;
673;SDS011;319;48.764;9.174;2022-12-18T10:09:18;1.60;;;1.60;;
673;SDS011;319;48.764;9.174;2022-12-18T10:11:53;1.67;;;1.67;;
673;SDS011;319;48.764;9.174;2022-12-18T10:14:29;1.60;;;1.60;;
673;SDS011;319;48.764;9.174;2022-12-18T10:17:03;1.70;;;1.70;;
673;SDS011;319;48.764;9.174;2022-12-18T10:19:38;1.53;;;1.53;;
673;SDS011;319;48.764;9.174;2022-12-18T10:22:16;1.60;;;1.60;;
673;SDS011;319;48.764;9.174;2022-12-18T10:24:50;1.70;;;1.70;;
673;SDS011;319;48.764;9.174;2022-12-18T10:27:26;1.50;;;1.50;;
673;SDS011;319;48.764;9.174;2022-12-18T10:29:54;1.60;;;1.60;;
673;SDS011;319;48.764;9.174;2022-12-18T10:32:23;1.60;;;1.60;;
673;SDS011;319;48.764;9.174;2022-12-18T10:34:52;1.50;;;1.50;;
673;SDS011;319;48.764;9.174;2022-12-18T10:37:23;1.60;;;1.60;;
673;SDS011;319;48.764;9.174;2022-12-18T10:40:06;1.50;;;1.50;;
673;SDS011;319;48.764;9.174;2022-12-18T10:42:36;1.60;;;1.60;;
673;SDS011;319;48.764;9.174;2022-12-18T10:45:08;1.60;;;1.60;;
673;SDS011;319;48.764;9.174;2022-12-18T10:47:36;1.50;;;1.50;;
673;SDS011;319;48.764;9.174;2022-12-18T10:50:10;1.60;;;1.60;;
673;SDS011;319;48.764;9.174;2022-12-18T10:52:59;1.50;;;1.50;;
673;SDS011;319;48.764;9.174;2022-12-18T10:55:29;1.70;;;1.70;;
673;SDS011;319;48.764;9.174;2022-12-18T11:01:01;1.40;;;1.40;;
673;SDS011;319;48.764;9.174;2022-12-18T11:03:34;1.60;;;1.60;;
673;SDS011;319;48.764;9.174;2022-12-18T11:06:04;1.43;;;1.43;;
673;SDS011;319;48.764;9.174;2022-12-18T11:08:33;1.60;;;1.60;;
673;SDS011;319;48.764;9.174;2022-12-18T11:11:01;1.50;;;1.50;;
673;SDS011;319;48.764;9.174;2022-12-18T11:13:29;1.70;;;1.70;;
673;SDS011;319;48.764;9.174;2022-12-18T11:15:57;1.60;;;1.60;;
673;SDS011;319;48.764;9.174;2022-12-18T11:18:26;1.40;;;1.40;;
673;SDS011;319;48.764;9.174;2022-12-18T11:20:56;1.50;;;1.50;;
673;SDS011;319;48.764;9.174;2022-12-18T11:23:27;2.37;;;2.37;;
673;SDS011;319;48.764;9.174;2022-12-18T11:25:55;1.47;;;1.47;;
673;SDS011;319;48.764;9.174;2022-12-18T11:28:33;1.60;;;1.60;;
673;SDS011;319;48.764;9.174;2022-12-18T11:31:10;1.40;;;1.40;;
673;SDS011;319;48.764;9.174;2022-12-18T11:33:44;1.50;;;1.50;;
673;SDS011;319;48.764;9.174;2022-12-18T11:36:15;1.50;;;1.50;;
673;SDS011;319;48.764;9.174;2022-12-18T11:38:43;1.50;;;1.50;;
673;SDS011;319;48.764;9.174;2022-12-18T11:41:13;1.50;;;1.50;;
673;SDS011;319;48.764;9.174;2022-12-18T11:43:49;1.60;;;1.60;;
673;SDS011;319;48.764;9.174;2022-12-18T11:46:23;1.50;;;1.50;;
673;SDS011;319;48.764;9.174;2022-12-18T11:48:56;1.40;;;1.40;;
673;SDS011;319;48.764;9.174;2022-12-18T11:51:28;1.60;;;1.60;;
673;SDS011;319;48.764;9.174;2022-12-18T11:54:00;1.60;;;1.60;;
673;SDS011;319;48.764;9.174;2022-12-18T11:56:33;1.60;;;1.60;;
673;SDS011;319;48.764;9.174;2022-12-18T11:59:06;1.60;;;1.60;;
673;SDS011;319;48.764;9.174;2022-12-18T12:01:45;1.50;;;1.50;;
673;SDS011;319;48.764;9.174;2022-12-18T12:04:20;1.50;;;1.50;;
673;SDS011;319;48.764;9.174;2022-12-18T12:07:06;1.50;;;1.50;;
673;SDS011;319;48.764;9.174;2022-12-18T12:09:46;1.50;;;1.50;;
673;SDS011;319;48.764;9.174;2022-12-18T12:12:27;1.60;;;1.60;;
673;SDS011;319;48.764;9.174;2022-12-18T12:15:16;1.60;;;1.60;;
673;SDS011;319;48.764;9.174;2022-12-18T12:17:53;1.50;;;1.50;;
673;SDS011;319;48.764;9.174;2022-12-18T12:20:27;1.50;;;1.50;;
673;SDS011;319;48.764;9.174;2022-12-18T12:23:05;1.60;;;1.60;;
673;SDS011;319;48.764;9.174;2022-12-18T12:25:46;1.50;;;1.50;;
673;SDS011;319;48.764;9.174;2022-12-18T12:28:31;1.50;;;1.50;;
673;SDS011;319;48.764;9.174;2022-12-18T12:31:13;1.60;;;1.60;;
673;SDS011;319;48.764;9.174;2022-12-18T12:33:49;1.50;;;1.50;;
673;SDS011;319;48.764;9.174;2022-12-18T12:36:30;1.50;;;1.50;;
673;SDS011;319;48.764;9.174;2022-12-18T12:39:06;1.50;;;1.50;;
673;SDS011;319;48.764;9.174;2022-12-18T12:41:38;1.60;;;1.60;;
673;SDS011;319;48.764;9.174;2022-12-18T12:44:25;1.57;;;1.57;;
673;SDS011;319;48.764;9.174;2022-12-18T12:46:57;1.50;;;1.50;;
673;SDS011;319;48.764;9.174;2022-12-18T12:49:29;1.60;;;1.60;;
673;SDS011;319;48.764;9.174;2022-12-18T12:52:00;1.50;;;1.50;;
673;SDS011;319;48.764;9.174;2022-12-18T12:54:31;1.50;;;1.50;;
673;SDS011;319;48.764;9.174;2022-12-18T12:56:59;1.50;;;1.50;;
673;SDS011;319;48.764;9.174;2022-12-18T12:59:30;1.40;;;1.40;;
673;SDS011;319;48.764;9.174;2022-12-18T13:02:10;1.60;;;1.60;;
673;SDS011;319;48.764;9.174;2022-12-18T13:04:45;1.30;;;1.30;;
673;SDS011;319;48.764;9.174;2022-12-18T13:07:17;1.50;;;1.50;;
673;SDS011;319;48.764;9.174;2022-12-18T13:12:50;1.37;;;1.37;;
673;SDS011;319;48.764;9.174;2022-12-18T13:15:25;1.70;;;1.70;;
673;SDS011;319;48.764;9.174;2022-12-18T13:18:09;5.10;;;5.00;;
673;SDS011;319;48.764;9.174;2022-12-18T13:20:41;4.33;;;4.23;;
673;SDS011;319;48.764;9.174;2022-12-18T13:23:20;2.10;;;2.10;;
673;SDS011;319;48.764;9.174;2022-12-18T13:25:56;2.83;;;2.83;;
673;SDS011;319;48.764;9.174;2022-12-18T13:28:49;3.40;;;3.30;;
673;SDS011;319;48.764;9.174;2022-12-18T13:34:32;1.80;;;1.80;;
673;SDS011;319;48.764;9.174;2022-12-18T13:39:59;2.90;;;2.90;;
673;SDS011;319;48.764;9.174;2022-12-18T13:42:37;2.80;;;2.80;;
673;SDS011;319;48.764;9.174;2022-12-18T13:45:35;2.10;;;2.10;;
673;SDS011;319;48.764;9.174;2022-12-18T13:48:04;2.07;;;2.07;;
673;SDS011;319;48.764;9.174;2022-12-18T13:50:32;2.20;;;2.20;;
673;SDS011;319;48.764;9.174;2022-12-18T13:53:00;2.20;;;2.20;;
673;SDS011;319;48.764;9.174;2022-12-18T13:55:27;2.00;;;2.00;;
673;SDS011;319;48.764;9.174;2022-12-18T13:58:02;2.17;;;2.17;;
673;SDS011;319;48.764;9.174;2022-12-18T14:00:30;2.00;;;2.00;;
673;SDS011;319;48.764;9.174;2022-12-18T14:02:58;2.00;;;2.00;;
673;SDS011;319;48.764;9.174;2022-12-18T14:05:26;2.00;;;2.00;;
673;SDS011;319;48.764;9.174;2022-12-18T14:07:58;2.00;;;2.00;;
673;SDS011;319;48.764;9.174;2022-12-18T14:10:27;2.00;;;2.00;;
673;SDS011;319;48.764;9.174;2022-12-18T14:12:54;1.80;;;1.80;;
673;SDS011;319;48.764;9.174;2022-12-18T14:15:32;2.10;;;2.10;;
673;SDS011;319;48.764;9.174;2022-12-18T14:18:01;1.90;;;1.90;;
673;SDS011;319;48.764;9.174;2022-12-18T14:20:35;1.90;;;1.90;;
673;SDS011;319;48.764;9.174;2022-12-18T14:23:04;2.17;;;2.17;;
673;SDS011;319;48.764;9.174;2022-12-18T14:25:31;1.80;;;1.80;;
673;SDS011;319;48.764;9.174;2022-12-18T14:28:02;2.00;;;2.00;;
673;SDS011;319;48.764;9.174;2022-12-18T14:30:38;2.30;;;2.30;;
673;SDS011;319;48.764;9.174;2022-12-18T14:33:08;1.97;;;1.97;;
673;SDS011;319;48.764;9.174;2022-12-18T14:35:37;2.00;;;2.00;;
673;SDS011;319;48.764;9.174;2022-12-18T14:38:15;1.90;;;1.90;;
673;SDS011;319;48.764;9.174;2022-12-18T14:40:47;1.80;;;1.80;;
673;SDS011;319;48.764;9.174;2022-12-18T14:43:17;2.00;;;2.00;;
673;SDS011;319;48.764;9.174;2022-12-18T14:45:45;1.75;;;1.75;;
673;SDS011;319;48.764;9.174;2022-12-18T14:48:15;1.80;;;1.80;;
673;SDS011;319;48.764;9.174;2022-12-18T14:50:55;2.10;;;2.10;;
673;SDS011;319;48.764;9.174;2022-12-18T14:53:28;1.80;;;1.80;;
673;SDS011;319;48.764;9.174;2022-12-18T14:56:00;2.20;;;2.20;;
673;SDS011;319;48.764;9.174;2022-12-18T14:58:30;1.93;;;1.93;;
673;SDS011;319;48.764;9.174;2022-12-18T15:00:57;1.90;;;1.90;;
673;SDS011;319;48.764;9.174;2022-12-18T15:03:27;2.10;;;2.10;;
673;SDS011;319;48.764;9.174;2022-12-18T15:05:54;1.77;;;1.77;;
673;SDS011;319;48.764;9.174;2022-12-18T15:08:29;1.90;;;1.90;;
673;SDS011;319;48.764;9.174;2022-12-18T15:11:00;2.00;;;2.00;;
673;SDS011;319;48.764;9.174;2022-12-18T15:13:27;2.40;;;2.40;;
673;SDS011;319;48.764;9.174;2022-12-18T15:15:54;2.70;;;2.70;;
673;SDS011;319;48.764;9.174;2022-12-18T15:18:23;2.40;;;2.40;;
673;SDS011;319;48.764;9.174;2022-12-18T15:20:57;2.50;;;2.50;;
673;SDS011;319;48.764;9.174;2022-12-18T15:23:35;2.40;;;2.40;;
673;SDS011;319;48.764;9.174;2022-12-18T15:26:04;2.80;;;2.80;;
673;SDS011;319;48.764;9.174;2022-12-18T15:28:38;2.70;;;2.70;;
673;SDS011;319;48.764;9.174;2022-12-18T15:31:21;3.20;;;3.10;;
673;SDS011;319;48.764;9.174;2022-12-18T15:34:09;3.37;;;3.27;;
673;SDS011;319;48.764;9.174;2022-12-18T15:36:38;3.30;;;3.20;;
673;SDS011;319;48.764;9.174;2022-12-18T15:39:09;3.30;;;3.20;;
673;SDS011;319;48.764;9.174;2022-12-18T15:41:38;3.20;;;3.10;;
673;SDS011;319;48.764;9.174;2022-12-18T15:44:26;3.00;;;3.00;;
673;SDS011;319;48.764;9.174;2022-12-18T15:46:55;3.13;;;3.10;;
673;SDS011;319;48.764;9.174;2022-12-18T15:49:23;3.00;;;3.00;;
673;SDS011;319;48.764;9.174;2022-12-18T15:51:54;3.00;;;3.00;;
673;SDS011;319;48.764;9.174;2022-12-18T15:54:25;2.90;;;2.90;;
673;SDS011;319;48.764;9.174;2022-12-18T15:57:09;3.10;;;3.00;;
673;SDS011;319;48.764;9.174;2022-12-18T15:59:51;3.00;;;3.00;;
673;SDS011;319;48.764;9.174;2022-12-18T16:02:22;3.10;;;3.07;;
673;SDS011;319;48.764;9.174;2022-12-18T16:04:49;2.90;;;2.90;;
673;SDS011;319;48.764;9.174;2022-12-18T16:07:17;2.70;;;2.70;;
673;SDS011;319;48.764;9.174;2022-12-18T16:09:45;3.20;;;3.10;;
673;SDS011;319;48.764;9.174;2022-12-18T16:12:17;2.70;;;2.70;;
673;SDS011;319;48.764;9.174;2022-12-18T16:14:46;3.07;;;3.07;;
673;SDS011;319;48.764;9.174;2022-12-18T16:17:14;2.90;;;2.90;;
673;SDS011;319;48.764;9.174;2022-12-18T16:19:42;2.50;;;2.50;;